St Louis Regional Airport Alton,St Louis US
ICAO: KALN
IATA: ALN
Category: Medium
Scheduled Services: No

Elevation: 544 ft
TransAlt. 18000 ft.

Airport Communications:
APP/DEP:124.2
ATIS:128
AWOS 3:128
CLNC DEL:120.2
CTAF:126
GND:120.2
RDO:122.05
REGIONAL TWR:126
UNICOM:122.95

KALN Zoom In..

If you have problems with the map follow the link
https://www.worldairports.se/pages/airport.php?
ICAO=KALN

Runways:

(A) RW 11 length 8099 ft width 150 ft
---- / hdg 114

(B) RW 17 length 6500 ft width 100 ft
---- / hdg 174

(C) RW 29 length 8099 ft width 150 ft
ILS 108.50 / hdg 294

(D) RW 35 length 6500 ft width 100 ft
---- / hdg 354

Location; KALN
Day. 12 / Time. 09.15 Zulu
* Altimeter: 30.39
* Temperature: -03° c. -26.6°f.
* Wind from: 130° Speed 05 kn.
Dewpoint: -04° c.
Visibility: 10 Statute Miles.
Clouds: Clear (automated report).

KALN 120915Z AUTO 13005KT 10SM CLR M03/M04 A3039 RMK AO2 T10331037


Wind From 130°
Speed 05 kn.

 
 
jpsmedia worldairports.se 2019   terms of use